Time;durP1;ratioP1;P1;durP2;ratioP2;P2;SDS_P1;SDS_P2;PMS_P1;PMS_P2;Temp;Humidity;BMP_temperature;BMP_pressure;BME280_temperature;BME280_humidity;BME280_pressure;Samples;Min_cycle;Max_cycle;Signal;HPM_P1;HPM_P2
2021/07/27 00:02:15;;;;;;;1999.90;999.90;;;;;;;19.59;94.32;96053.13;5030540;28;20267;-63
2021/07/27 00:04:42;;;;;;;1999.90;999.90;;;;;;;19.69;93.47;96057.16;5025931;28;20213;-62
2021/07/27 00:07:10;;;;;;;1999.90;999.90;;;;;;;19.59;93.70;96047.84;5029220;28;20202;-62
2021/07/27 00:09:37;;;;;;;1999.90;999.90;;;;;;;19.53;93.33;96049.19;5029344;28;20263;-62
2021/07/27 00:12:05;;;;;;;1999.90;999.90;;;;;;;19.43;93.95;96052.28;5042432;28;20249;-62
2021/07/27 00:14:32;;;;;;;1999.90;999.90;;;;;;;19.11;96.48;96055.91;5048228;28;20197;-62
2021/07/27 00:16:59;;;;;;;1999.90;999.90;;;;;;;19.26;94.42;96063.13;5029152;28;20229;-63
2021/07/27 00:19:26;;;;;;;1999.90;999.90;;;;;;;19.41;91.23;96056.38;5029214;28;20681;-62
2021/07/27 00:21:53;;;;;;;1999.90;999.90;;;;;;;19.61;87.11;96060.72;5028653;28;20237;-62
2021/07/27 00:24:26;;;;;;;1999.90;999.90;;;;;;;19.84;84.48;96060.91;5029202;28;20202;-62
2021/07/27 00:26:54;;;;;;;1999.90;999.90;;;;;;;19.92;83.22;96060.78;5029033;28;20212;-62
2021/07/27 00:29:23;;;;;;;1999.90;999.90;;;;;;;19.96;83.10;96058.22;5028700;28;20681;-62
2021/07/27 00:31:50;;;;;;;1999.90;999.90;;;;;;;19.82;85.90;96060.50;5028737;28;20202;-62
2021/07/27 00:34:17;;;;;;;1999.90;999.90;;;;;;;19.66;87.25;96058.59;5028599;28;20243;-62
2021/07/27 00:36:44;;;;;;;1999.90;999.90;;;;;;;19.68;87.71;96061.66;5028555;28;20317;-62
2021/07/27 00:39:11;;;;;;;1999.90;999.90;;;;;;;19.63;89.18;96061.91;5037123;28;20205;-62
2021/07/27 00:41:39;;;;;;;1999.90;999.90;;;;;;;19.62;89.97;96068.31;5042078;28;20201;-62
2021/07/27 00:44:06;;;;;;;1999.90;999.90;;;;;;;19.45;91.51;96067.81;5028870;28;20205;-62
2021/07/27 00:46:33;;;;;;;1999.90;999.90;;;;;;;19.28;92.87;96064.31;5028604;28;20193;-62
2021/07/27 00:49:01;;;;;;;1999.90;999.90;;;;;;;19.13;94.58;96061.59;5033854;28;20261;-62
2021/07/27 00:51:30;;;;;;;1999.90;999.90;;;;;;;19.12;95.57;96063.50;5028394;28;20670;-62
2021/07/27 00:53:57;;;;;;;1999.90;999.90;;;;;;;18.86;96.57;96058.59;5028666;28;20208;-63
2021/07/27 00:56:26;;;;;;;1999.90;999.90;;;;;;;18.92;97.06;96064.41;5029273;28;20225;-62
2021/07/27 00:58:55;;;;;;;1999.90;999.90;;;;;;;18.91;97.23;96071.56;5048226;28;20248;-62
2021/07/27 01:01:22;;;;;;;1999.90;999.90;;;;;;;18.76;99.18;96059.06;5048422;28;20250;-62
2021/07/27 01:03:49;;;;;;;1999.90;999.90;;;;;;;18.80;98.87;96059.94;5048164;28;20283;-63
2021/07/27 01:06:16;;;;;;;1999.90;999.90;;;;;;;18.76;99.23;96069.59;5048301;28;20693;-62
2021/07/27 01:08:45;;;;;;;1999.90;999.90;;;;;;;18.71;100.00;96072.44;5048349;28;20258;-62
2021/07/27 01:11:22;;;;;;;1999.90;999.90;;;;;;;18.82;100.00;96078.81;5047855;28;20836;-62
2021/07/27 01:13:49;;;;;;;1999.90;999.90;;;;;;;18.82;100.00;96078.81;5042365;28;20257;-62
2021/07/27 01:16:20;;;;;;;1999.90;999.90;;;;;;;18.83;100.00;96074.28;5031280;28;20290;-62
2021/07/27 01:18:56;;;;;;;1999.90;999.90;;;;;;;18.79;100.00;96086.59;5042678;28;20224;-62
2021/07/27 01:38:07;;;;;;;1999.90;999.90;;;;;;;18.76;100.00;96068.81;5066389;28;20233;-61
2021/07/27 01:40:43;;;;;;;1999.90;999.90;;;;;;;18.79;100.00;96073.41;5067466;28;20642;-61
2021/07/27 01:43:09;;;;;;;1999.90;999.90;;;;;;;18.69;100.00;96066.75;5067891;28;20212;-61
2021/07/27 01:45:36;;;;;;;1999.90;999.90;;;;;;;18.63;100.00;96062.03;5041709;28;20679;-62
2021/07/27 01:48:04;;;;;;;1999.90;999.90;;;;;;;18.40;100.00;96064.31;5031369;28;20312;-62
2021/07/27 01:50:31;;;;;;;1999.90;999.90;;;;;;;18.42;100.00;96064.75;5027536;28;20202;-62
2021/07/27 01:53:04;;;;;;;1999.90;999.90;;;;;;;18.41;100.00;96063.97;5027507;28;20214;-61
2021/07/27 01:55:34;;;;;;;1999.90;999.90;;;;;;;18.16;100.00;96067.69;5027466;28;20286;-61
2021/07/27 01:58:03;;;;;;;1999.90;999.90;;;;;;;18.24;100.00;96073.94;5027580;28;20243;-61
2021/07/27 02:00:30;;;;;;;1999.90;999.90;;;;;;;18.30;100.00;96062.88;5026909;27;20201;-62
2021/07/27 02:02:57;;;;;;;1999.90;999.90;;;;;;;18.30;100.00;96062.88;5040074;27;20209;-61
2021/07/27 02:05:24;;;;;;;1999.90;999.90;;;;;;;18.23;100.00;96067.16;5039143;27;20224;-62
2021/07/27 02:07:55;;;;;;;1999.90;999.90;;;;;;;17.95;100.00;96072.25;5026967;28;20198;-62
2021/07/27 02:10:26;;;;;;;1999.90;999.90;;;;;;;17.95;100.00;96067.75;5026504;28;20293;-62
2021/07/27 02:12:59;;;;;;;1999.90;999.90;;;;;;;18.00;100.00;96072.81;5046898;28;20676;-61
2021/07/27 02:15:37;;;;;;;1999.90;999.90;;;;;;;17.98;100.00;96076.88;5044356;27;20265;-62
2021/07/27 02:18:04;;;;;;;1999.90;999.90;;;;;;;17.89;100.00;96076.94;5039144;27;20209;-62
2021/07/27 02:20:31;;;;;;;1999.90;999.90;;;;;;;17.85;100.00;96080.56;5044527;28;20239;-62
2021/07/27 02:22:58;;;;;;;1999.90;999.90;;;;;;;17.79;100.00;96077.34;5039883;28;20206;-64
2021/07/27 02:25:25;;;;;;;1999.90;999.90;;;;;;;17.75;100.00;96076.47;5027127;28;20674;-62
2021/07/27 02:27:52;;;;;;;1999.90;999.90;;;;;;;17.81;100.00;96083.06;5026732;28;20202;-62
2021/07/27 02:30:19;;;;;;;1999.90;999.90;;;;;;;17.80;100.00;96081.53;5036570;28;20661;-63
2021/07/27 02:32:48;;;;;;;1999.90;999.90;;;;;;;17.80;100.00;96076.25;5027484;28;20206;-65
2021/07/27 02:35:15;;;;;;;1999.90;999.90;;;;;;;17.85;100.00;96075.28;5026791;28;20202;-62
2021/07/27 02:37:42;;;;;;;1999.90;999.90;;;;;;;17.77;100.00;96076.16;5026996;28;20695;-63
2021/07/27 02:40:11;;;;;;;1999.90;999.90;;;;;;;17.74;100.00;96079.41;5027811;28;20206;-62
2021/07/27 02:42:38;;;;;;;1999.90;999.90;;;;;;;17.74;100.00;96077.56;5029124;28;20214;-63
2021/07/27 02:45:06;;;;;;;1999.90;999.90;;;;;;;17.78;100.00;96078.47;5026448;28;20202;-64
2021/07/27 02:47:34;;;;;;;1999.90;999.90;;;;;;;17.85;100.00;96075.28;5031624;28;20208;-64
2021/07/27 02:50:03;;;;;;;1999.90;999.90;;;;;;;17.75;100.00;96084.34;5045014;28;20569;-63
2021/07/27 02:52:33;;;;;;;1999.90;999.90;;;;;;;17.73;100.00;96077.91;5030642;28;20210;-64
2021/07/27 02:55:00;;;;;;;1999.90;999.90;;;;;;;17.67;100.00;96082.59;5040567;28;20295;-63
2021/07/27 02:57:27;;;;;;;1999.90;999.90;;;;;;;17.53;100.00;96087.31;5046462;28;20225;-63
2021/07/27 02:59:56;;;;;;;1999.90;999.90;;;;;;;17.52;100.00;96080.53;5038507;28;20328;-62
2021/07/27 03:02:23;;;;;;;1999.90;999.90;;;;;;;17.53;100.00;96082.06;5046245;28;20190;-63
2021/07/27 03:04:50;;;;;;;1999.90;999.90;;;;;;;17.47;100.00;96085.97;5045523;28;20766;-62
2021/07/27 03:07:20;;;;;;;1999.90;999.90;;;;;;;17.44;100.00;96089.25;5046199;28;20689;-63
2021/07/27 03:12:28;;;;;;;1999.90;999.90;;;;;;;17.45;100.00;96088.16;5045883;28;20211;-63
2021/07/27 03:14:59;;;;;;;1999.90;999.90;;;;;;;17.49;100.00;96081.16;5045959;28;20208;-63
2021/07/27 03:17:26;;;;;;;1999.90;999.90;;;;;;;17.50;100.00;96083.47;5046008;28;20238;-62
2021/07/27 03:19:53;;;;;;;1999.90;999.90;;;;;;;17.53;100.00;96087.31;5046137;28;20204;-63
2021/07/27 03:22:22;;;;;;;1999.90;999.90;;;;;;;17.53;100.00;96092.59;5045953;28;20285;-62
2021/07/27 03:24:49;;;;;;;1999.90;999.90;;;;;;;17.54;100.00;96094.88;5046674;28;20197;-66
2021/07/27 03:27:16;;;;;;;1999.90;999.90;;;;;;;17.60;100.00;96103.34;5045708;28;20950;-66
2021/07/27 03:29:43;;;;;;;1999.90;999.90;;;;;;;17.68;100.00;96092.03;5044755;28;20443;-66
2021/07/27 03:32:10;;;;;;;1999.90;999.90;;;;;;;17.83;100.00;96104.53;5046021;28;20190;-62
2021/07/27 03:34:37;;;;;;;1999.90;999.90;;;;;;;17.74;100.00;96109.09;5045899;28;20193;-62
2021/07/27 03:37:04;;;;;;;1999.90;999.90;;;;;;;17.63;100.00;96100.09;5046218;28;20228;-63
2021/07/27 03:39:33;;;;;;;1999.90;999.90;;;;;;;17.64;100.00;96110.28;5043615;28;20565;-62
2021/07/27 03:42:00;;;;;;;1999.90;999.90;;;;;;;17.71;100.00;96104.50;5036642;28;20278;-63
2021/07/27 03:44:27;;;;;;;1999.90;999.90;;;;;;;17.73;100.00;96099.72;5049497;28;20271;-63
2021/07/27 03:46:54;;;;;;;1999.90;999.90;;;;;;;17.76;100.00;96112.19;5045294;28;20224;-63
2021/07/27 03:49:21;;;;;;;1999.90;999.90;;;;;;;17.80;100.00;96114.94;5046909;28;20257;-63
2021/07/27 03:51:48;;;;;;;1999.90;999.90;;;;;;;17.93;100.00;96106.00;5039232;27;20214;-62
2021/07/27 03:54:15;;;;;;;1999.90;999.90;;;;;;;17.94;100.00;96116.19;5029338;28;20213;-62
2021/07/27 03:56:44;;;;;;;1999.90;999.90;;;;;;;17.82;100.00;96116.16;5028092;28;20225;-61
2021/07/27 03:59:14;;;;;;;1999.90;999.90;;;;;;;17.82;100.00;96113.53;5029559;28;20202;-63
2021/07/27 04:01:42;;;;;;;1999.90;999.90;;;;;;;17.82;100.00;96110.91;5029385;28;20198;-60
2021/07/27 04:04:09;;;;;;;1999.90;999.90;;;;;;;17.87;100.00;96110.72;5029556;28;20279;-60
2021/07/27 04:06:36;;;;;;;1999.90;999.90;;;;;;;17.94;100.00;96118.81;5029226;28;20767;-62
2021/07/27 04:09:03;;;;;;;1999.90;999.90;;;;;;;17.98;100.00;96119.69;5027811;28;20215;-62
2021/07/27 04:11:30;;;;;;;1999.90;999.90;;;;;;;18.03;100.00;96126.63;5033648;27;20676;-62
2021/07/27 04:13:59;;;;;;;1999.90;999.90;;;;;;;18.04;100.00;96120.25;5045455;28;20273;-62
2021/07/27 04:16:26;;;;;;;1999.90;999.90;;;;;;;18.23;100.00;96119.78;5046617;28;20663;-62
2021/07/27 04:18:53;;;;;;;1999.90;999.90;;;;;;;18.45;99.92;96117.50;5047170;28;20205;-61
2021/07/27 04:21:20;;;;;;;1999.90;999.90;;;;;;;18.56;99.65;96127.63;5046626;28;20233;-62
2021/07/27 04:23:47;;;;;;;1999.90;999.90;;;;;;;18.70;99.65;96128.84;5047474;28;20198;-61
2021/07/27 04:26:14;;;;;;;1999.90;999.90;;;;;;;18.86;99.64;96126.31;5049042;28;20811;-62
2021/07/27 04:28:42;;;;;;;1999.90;999.90;;;;;;;19.01;97.98;96120.38;5048769;28;20233;-60
2021/07/27 04:31:10;;;;;;;1999.90;999.90;;;;;;;19.02;96.62;96124.56;5034679;28;20243;-60
2021/07/27 04:33:38;;;;;;;1999.90;999.90;;;;;;;19.15;96.15;96117.38;5029054;28;20280;-60
2021/07/27 04:36:07;;;;;;;1999.90;999.90;;;;;;;19.36;95.63;96123.28;5028662;28;20201;-60
2021/07/27 04:38:34;;;;;;;1999.90;999.90;;;;;;;19.63;93.74;96119.91;5029031;28;20278;-60
2021/07/27 04:41:06;;;;;;;1999.90;999.90;;;;;;;19.91;92.21;96119.16;5028899;28;20206;-60
2021/07/27 04:43:33;;;;;;;1999.90;999.90;;;;;;;20.12;90.77;96117.81;5029021;28;20243;-60
2021/07/27 04:46:01;;;;;;;1999.90;999.90;;;;;;;20.30;87.98;96120.91;5028969;28;20969;-60
2021/07/27 04:48:29;;;;;;;1999.90;999.90;;;;;;;20.43;86.92;96119.75;5028382;28;20197;-60
2021/07/27 04:50:56;;;;;;;1999.90;999.90;;;;;;;20.45;88.61;96119.41;5028121;28;20208;-62
2021/07/27 04:53:25;;;;;;;1999.90;999.90;;;;;;;20.59;91.21;96120.53;5027935;28;20207;-61
2021/07/27 04:55:52;;;;;;;1999.90;999.90;;;;;;;20.82;91.00;96114.63;5028394;28;20198;-71
2021/07/27 04:58:20;;;;;;;1999.90;999.90;;;;;;;21.03;87.78;96118.50;5028510;28;20583;-61
2021/07/27 05:00:47;;;;;;;1999.90;999.90;;;;;;;21.20;83.97;96120.03;5028246;28;20194;-63
2021/07/27 05:03:14;;;;;;;1999.90;999.90;;;;;;;21.39;78.33;96129.88;5028309;28;20202;-62
2021/07/27 05:05:42;;;;;;;1999.90;999.90;;;;;;;21.60;77.22;96127.66;5028439;28;20559;-61
2021/07/27 05:08:09;;;;;;;1999.90;999.90;;;;;;;21.90;76.70;96128.63;5037107;28;20213;-60
2021/07/27 05:10:36;;;;;;;1999.90;999.90;;;;;;;22.10;77.96;96126.75;5029297;28;20274;-61
2021/07/27 05:13:04;;;;;;;1999.90;999.90;;;;;;;22.21;71.37;96127.69;5048348;28;20681;-61
2021/07/27 05:15:31;;;;;;;1999.90;999.90;;;;;;;22.49;72.91;96131.94;5048355;28;20197;-61
2021/07/27 05:17:58;;;;;;;1999.90;999.90;;;;;;;22.64;77.01;96134.47;5047839;28;20232;-61
2021/07/27 05:20:25;;;;;;;1999.90;999.90;;;;;;;22.68;76.96;96137.94;5048083;28;20197;-61
2021/07/27 05:22:53;;;;;;;1999.90;999.90;;;;;;;22.91;72.69;96142.47;5048133;28;20545;-60
2021/07/27 05:25:21;;;;;;;1999.90;999.90;;;;;;;23.02;71.06;96144.16;5048175;28;20277;-61
2021/07/27 05:27:48;;;;;;;1999.90;999.90;;;;;;;23.21;72.27;96145.19;5048180;28;20198;-62
2021/07/27 05:30:17;;;;;;;1999.90;999.90;;;;;;;23.49;67.54;96153.53;5047771;28;20966;-60
2021/07/27 05:32:44;;;;;;;1999.90;999.90;;;;;;;23.47;68.12;96147.81;5047713;28;20201;-61
2021/07/27 05:35:12;;;;;;;1999.90;999.90;;;;;;;23.73;67.82;96155.72;5047646;28;20578;-61
2021/07/27 05:37:39;;;;;;;1999.90;999.90;;;;;;;23.73;68.18;96158.38;5047720;28;20235;-61
2021/07/27 05:40:10;;;;;;;1999.90;999.90;;;;;;;23.69;67.81;96154.94;5048646;28;20200;-61
2021/07/27 05:42:37;;;;;;;1999.90;999.90;;;;;;;23.81;69.14;96153.94;5028052;28;20227;-61
2021/07/27 05:45:05;;;;;;;1999.90;999.90;;;;;;;23.78;66.99;96150.09;5027679;28;20201;-61
2021/07/27 05:47:32;;;;;;;1999.90;999.90;;;;;;;24.18;65.83;96148.66;5027690;28;20194;-61
2021/07/27 05:49:59;;;;;;;1999.90;999.90;;;;;;;24.17;63.92;96152.44;5027567;28;20205;-62
2021/07/27 05:52:26;;;;;;;1999.90;999.90;;;;;;;24.42;60.62;96148.88;5027533;28;20210;-61
2021/07/27 05:54:53;;;;;;;1999.90;999.90;;;;;;;24.20;62.53;96151.72;5027740;28;20250;-62
2021/07/27 05:57:22;;;;;;;1999.90;999.90;;;;;;;24.62;60.15;96146.03;5027216;28;20230;-62
2021/07/27 05:59:49;;;;;;;1999.90;999.90;;;;;;;24.74;60.34;96148.41;5027267;28;20198;-61
2021/07/27 06:02:20;;;;;;;1999.90;999.90;;;;;;;24.93;60.76;96147.44;5027418;28;20232;-62
2021/07/27 06:04:47;;;;;;;1999.90;999.90;;;;;;;25.18;58.05;96145.69;5027411;28;20607;-61
2021/07/27 06:07:15;;;;;;;1999.90;999.90;;;;;;;25.28;56.61;96139.66;5027344;28;20259;-62
2021/07/27 06:09:42;;;;;;;1999.90;999.90;;;;;;;25.32;57.64;96145.78;5027235;28;20753;-61
2021/07/27 06:12:09;;;;;;;1999.90;999.90;;;;;;;25.55;54.53;96142.88;5040728;28;20258;-62
2021/07/27 06:14:38;;;;;;;1999.90;999.90;;;;;;;25.72;55.51;96139.53;5047187;28;20202;-62
2021/07/27 06:17:05;;;;;;;1999.90;999.90;;;;;;;25.60;56.38;96145.94;5047051;28;20205;-62
2021/07/27 06:19:32;;;;;;;1999.90;999.90;;;;;;;25.56;57.98;96142.50;5047057;28;20676;-62
2021/07/27 06:21:59;;;;;;;1999.90;999.90;;;;;;;25.45;59.50;96143.56;5047170;28;20736;-61
2021/07/27 06:24:26;;;;;;;1999.90;999.90;;;;;;;25.94;54.52;96135.03;5046904;28;20208;-62
2021/07/27 06:26:53;;;;;;;1999.90;999.90;;;;;;;26.16;55.71;96136.59;5047172;28;20197;-62
2021/07/27 06:29:21;;;;;;;1999.90;999.90;;;;;;;26.30;54.72;96139.31;5047207;28;20205;-62
2021/07/27 06:31:49;;;;;;;1999.90;999.90;;;;;;;26.40;56.52;96138.56;5046880;28;20201;-61
2021/07/27 06:34:16;;;;;;;1999.90;999.90;;;;;;;26.27;53.86;96134.75;5046876;28;20208;-61
2021/07/27 06:36:43;;;;;;;1999.90;999.90;;;;;;;26.52;50.38;96135.53;5046726;28;20197;-61
2021/07/27 06:39:10;;;;;;;1999.90;999.90;;;;;;;26.76;52.01;96135.91;5046675;28;20281;-61
2021/07/27 06:41:37;;;;;;;1999.90;999.90;;;;;;;26.72;52.85;96132.50;5046918;28;20221;-62
2021/07/27 06:44:05;;;;;;;1999.90;999.90;;;;;;;26.97;51.18;96126.03;5046839;28;20224;-61
2021/07/27 06:46:33;;;;;;;1999.90;999.90;;;;;;;26.81;48.91;96136.28;5046962;28;20197;-61
2021/07/27 06:49:01;;;;;;;1999.90;999.90;;;;;;;26.85;50.49;96141.66;5046813;28;20197;-62
2021/07/27 06:51:28;;;;;;;1999.90;999.90;;;;;;;26.84;51.14;96134.78;5046920;28;20609;-62
2021/07/27 06:53:56;;;;;;;1999.90;999.90;;;;;;;26.97;52.40;96133.25;5046583;28;20197;-62
2021/07/27 06:56:23;;;;;;;1999.90;999.90;;;;;;;27.16;50.80;96135.50;5046904;28;20545;-62
2021/07/27 06:58:50;;;;;;;1999.90;999.90;;;;;;;27.11;49.77;96133.25;5046740;28;20225;-62
2021/07/27 07:01:17;;;;;;;1999.90;999.90;;;;;;;27.11;47.74;96132.47;5046729;28;20210;-61
2021/07/27 07:03:44;;;;;;;1999.90;999.90;;;;;;;27.10;48.25;96131.72;5046857;28;20194;-61
2021/07/27 07:06:13;;;;;;;1999.90;999.90;;;;;;;26.81;50.79;96130.19;5046259;28;20212;-61
2021/07/27 07:08:41;;;;;;;1999.90;999.90;;;;;;;26.95;52.81;96130.97;5046352;28;20204;-61
2021/07/27 07:11:10;;;;;;;1999.90;999.90;;;;;;;27.34;51.57;96124.81;5046267;28;20197;-62
2021/07/27 07:13:38;;;;;;;1999.90;999.90;;;;;;;27.59;49.41;96124.75;5046163;28;20197;-62
2021/07/27 07:16:09;;;;;;;1999.90;999.90;;;;;;;27.66;50.30;96114.03;5045416;28;20193;-62
2021/07/27 07:18:36;;;;;;;1999.90;999.90;;;;;;;27.73;49.59;96119.34;5046362;28;20205;-61
2021/07/27 07:21:04;;;;;;;1999.90;999.90;;;;;;;27.91;50.42;96113.91;5045908;28;20240;-62
2021/07/27 07:23:33;;;;;;;1999.90;999.90;;;;;;;28.03;47.71;96108.88;5046348;28;20205;-62
2021/07/27 07:26:00;;;;;;;1999.90;999.90;;;;;;;28.00;49.14;96108.88;5045907;28;20197;-62
2021/07/27 07:28:27;;;;;;;1999.90;999.90;;;;;;;28.25;45.93;96107.63;5046083;28;20737;-61
2021/07/27 07:30:54;;;;;;;1999.90;999.90;;;;;;;28.31;50.02;96112.53;5045920;28;20232;-62
2021/07/27 07:33:21;;;;;;;1999.90;999.90;;;;;;;28.57;47.51;96111.97;5046010;28;20205;-62
2021/07/27 07:35:48;;;;;;;1999.90;999.90;;;;;;;28.59;46.52;96107.00;5046029;28;20230;-62
2021/07/27 07:38:15;;;;;;;1999.90;999.90;;;;;;;28.51;47.95;96108.19;5045817;28;20282;-62
2021/07/27 07:40:44;;;;;;;1999.90;999.90;;;;;;;28.60;44.17;96109.25;5046120;28;20205;-63
2021/07/27 07:43:11;;;;;;;1999.90;999.90;;;;;;;28.68;44.76;96110.75;5046224;28;20201;-62
2021/07/27 07:45:39;;;;;;;1999.90;999.90;;;;;;;28.81;43.11;96110.25;5059773;28;20250;-62
2021/07/27 07:48:06;;;;;;;1999.90;999.90;;;;;;;28.94;42.74;96119.34;5066036;28;20204;-62
2021/07/27 07:50:34;;;;;;;1999.90;999.90;;;;;;;29.03;44.20;96112.34;5065524;28;20200;-62
2021/07/27 07:53:02;;;;;;;1999.90;999.90;;;;;;;28.92;44.89;96110.94;5065681;28;20225;-62
2021/07/27 07:55:30;;;;;;;1999.90;999.90;;;;;;;29.27;45.25;96102.53;5065839;28;20196;-63
2021/07/27 07:58:01;;;;;;;1999.90;999.90;;;;;;;29.12;44.44;96109.22;5065569;27;20228;-62
2021/07/27 08:00:28;;;;;;;1999.90;999.90;;;;;;;29.09;41.18;96110.75;5065899;27;20291;-62
2021/07/27 08:02:55;;;;;;;1999.90;999.90;;;;;;;29.09;42.70;96115.38;5065533;28;20201;-62
2021/07/27 08:05:23;;;;;;;1999.90;999.90;;;;;;;29.28;43.65;96111.34;5065493;28;20339;-62
2021/07/27 08:07:50;;;;;;;1999.90;999.90;;;;;;;29.53;43.62;96106.50;5065409;28;20196;-62
2021/07/27 08:10:17;;;;;;;1999.90;999.90;;;;;;;29.73;42.47;96112.75;5065836;28;20201;-61
2021/07/27 08:12:46;;;;;;;1999.90;999.90;;;;;;;29.70;42.89;96110.84;5047046;28;20198;-61
2021/07/27 08:15:15;;;;;;;1999.90;999.90;;;;;;;29.87;44.85;96109.88;5045621;28;20284;-61
2021/07/27 08:17:43;;;;;;;1999.90;999.90;;;;;;;30.12;42.25;96116.84;5045348;28;20213;-62
2021/07/27 08:20:11;;;;;;;1999.90;999.90;;;;;;;30.16;41.62;96114.88;5045689;28;20201;-61
2021/07/27 08:22:39;;;;;;;1999.90;999.90;;;;;;;30.42;40.70;96111.41;5045066;28;20752;-62
2021/07/27 08:25:07;;;;;;;1999.90;999.90;;;;;;;30.47;41.20;96108.31;5045403;28;20761;-62
2021/07/27 08:27:34;;;;;;;1999.90;999.90;;;;;;;30.76;42.49;96104.00;5048281;28;20219;-62
2021/07/27 08:30:01;;;;;;;1999.90;999.90;;;;;;;30.59;40.32;96098.91;5048729;28;20562;-61
2021/07/27 08:32:30;;;;;;;1999.90;999.90;;;;;;;30.74;42.45;96110.91;5048846;28;20201;-62
2021/07/27 08:34:57;;;;;;;1999.90;999.90;;;;;;;30.94;42.94;96100.22;5048560;28;20201;-62
2021/07/27 08:37:24;;;;;;;1999.90;999.90;;;;;;;31.10;40.12;96103.03;5048557;28;20258;-62
2021/07/27 08:39:51;;;;;;;1999.90;999.90;;;;;;;31.15;38.29;96102.56;5048828;28;20247;-63
2021/07/27 08:42:20;;;;;;;1999.90;999.90;;;;;;;31.31;38.39;96097.28;5048595;28;20201;-62
2021/07/27 08:44:50;;;;;;;1999.90;999.90;;;;;;;31.31;40.36;96099.97;5048427;28;20201;-62
2021/07/27 08:47:17;;;;;;;1999.90;999.90;;;;;;;30.98;39.28;96099.03;5045249;28;20549;-62
2021/07/27 08:49:46;;;;;;;1999.90;999.90;;;;;;;30.87;39.93;96092.31;5028325;28;20202;-62
2021/07/27 08:52:13;;;;;;;1999.90;999.90;;;;;;;31.24;41.49;96094.72;5028866;28;20277;-62
2021/07/27 08:54:43;;;;;;;1999.90;999.90;;;;;;;31.02;39.67;96090.91;5028791;28;20225;-62
2021/07/27 08:57:15;;;;;;;1999.90;999.90;;;;;;;31.42;35.86;96094.38;5028688;28;20262;-62
2021/07/27 08:59:43;;;;;;;1999.90;999.90;;;;;;;31.62;39.43;96089.78;5028348;28;20214;-62
2021/07/27 09:02:10;;;;;;;1999.90;999.90;;;;;;;31.42;39.40;96087.09;5028339;28;20201;-62
2021/07/27 09:04:37;;;;;;;1999.90;999.90;;;;;;;31.80;39.15;96078.63;5028561;28;20204;-62
2021/07/27 09:07:07;;;;;;;1999.90;999.90;;;;;;;32.06;38.82;96072.31;5028182;28;20205;-62
2021/07/27 09:09:35;;;;;;;1999.90;999.90;;;;;;;32.29;40.04;96084.88;5028224;28;20204;-63
2021/07/27 09:12:06;;;;;;;1999.90;999.90;;;;;;;32.06;37.68;96083.06;5040914;28;20254;-62
2021/07/27 09:14:33;;;;;;;1999.90;999.90;;;;;;;31.93;38.34;96084.91;5048060;28;20198;-62
2021/07/27 09:17:00;;;;;;;1999.90;999.90;;;;;;;31.64;41.74;96084.72;5047958;28;20250;-62
2021/07/27 09:19:27;;;;;;;1999.90;999.90;;;;;;;31.66;40.31;96084.31;5047978;28;20229;-63
2021/07/27 09:22:06;;;;;;;1999.90;999.90;;;;;;;31.82;37.90;96079.75;5047728;28;20349;-63
2021/07/27 09:24:33;;;;;;;1999.90;999.90;;;;;;;31.70;37.44;96076.94;5048359;28;20541;-62
2021/07/27 09:27:02;;;;;;;1999.90;999.90;;;;;;;31.80;38.59;96075.94;5048046;28;20201;-63
2021/07/27 09:29:30;;;;;;;1999.90;999.90;;;;;;;31.91;40.55;96081.88;5048247;28;20197;-62
2021/07/27 09:32:00;;;;;;;1999.90;999.90;;;;;;;32.02;39.05;96071.63;5047933;28;20212;-63
2021/07/27 09:34:27;;;;;;;1999.90;999.90;;;;;;;31.99;37.15;96073.22;5047799;28;20197;-63
2021/07/27 09:37:06;;;;;;;1999.90;999.90;;;;;;;31.81;37.61;96066.72;5062971;28;20261;-62
2021/07/27 09:39:33;;;;;;;1999.90;999.90;;;;;;;31.78;38.54;96067.56;5067239;28;21005;-62
2021/07/27 09:42:02;;;;;;;1999.90;999.90;;;;;;;31.73;40.34;96065.38;5067768;28;20204;-63
2021/07/27 09:44:30;;;;;;;1999.90;999.90;;;;;;;31.84;38.79;96066.63;5068188;27;20261;-63
2021/07/27 09:46:59;;;;;;;1999.90;999.90;;;;;;;32.07;37.48;96068.44;5067996;28;20657;-63
2021/07/27 09:49:27;;;;;;;1999.90;999.90;;;;;;;32.03;37.36;96060.44;5067804;27;20200;-62
2021/07/27 09:51:56;;;;;;;1999.90;999.90;;;;;;;32.24;41.12;96050.38;5067680;28;20260;-62
2021/07/27 09:54:26;;;;;;;1999.90;999.90;;;;;;;32.35;41.56;96048.19;5067758;28;20403;-63
2021/07/27 09:56:54;;;;;;;1999.90;999.90;;;;;;;32.67;38.75;96052.84;5067385;28;20572;-63
2021/07/27 09:59:24;;;;;;;1999.90;999.90;;;;;;;32.87;38.56;96053.47;5067555;28;20224;-63
2021/07/27 10:01:56;;;;;;;1999.90;999.90;;;;;;;33.04;37.46;96054.91;5067252;27;20204;-63
2021/07/27 10:04:31;;;;;;;1999.90;999.90;;;;;;;32.59;41.84;96044.13;5067256;28;20237;-63
2021/07/27 10:06:59;;;;;;;1999.90;999.90;;;;;;;32.88;38.47;96044.94;5067084;28;20180;-63
2021/07/27 10:09:32;;;;;;;1999.90;999.90;;;;;;;32.99;40.78;96044.66;5067084;28;21019;-63
2021/07/27 10:12:09;;;;;;;1999.90;999.90;;;;;;;32.89;40.03;96041.06;5054817;27;20186;-64
2021/07/27 10:14:41;;;;;;;1999.90;999.90;;;;;;;33.03;37.66;96034.53;5047095;28;20230;-63
2021/07/27 10:17:09;;;;;;;1999.90;999.90;;;;;;;33.08;38.53;96031.31;5047085;28;20703;-63
2021/07/27 10:19:40;;;;;;;1999.90;999.90;;;;;;;33.07;40.54;96024.44;5047305;28;20221;-63
2021/07/27 10:22:09;;;;;;;1999.90;999.90;;;;;;;33.34;41.18;96021.41;5046749;28;20229;-62
2021/07/27 10:24:40;;;;;;;1999.90;999.90;;;;;;;33.69;40.59;96025.03;5046829;27;20728;-62
2021/07/27 10:27:09;;;;;;;1999.90;999.90;;;;;;;33.82;39.40;96017.69;5046734;28;20189;-63
2021/07/27 10:29:36;;;;;;;1999.90;999.90;;;;;;;33.79;40.64;96015.84;5047089;27;20205;-63
2021/07/27 10:32:13;;;;;;;1999.90;999.90;;;;;;;34.05;39.57;96017.34;5046881;28;20197;-63
2021/07/27 10:34:41;;;;;;;1999.90;999.90;;;;;;;33.85;37.72;96016.06;5046988;28;20269;-63
2021/07/27 10:37:09;;;;;;;1999.90;999.90;;;;;;;33.72;40.17;96013.38;5046637;28;20680;-63
2021/07/27 10:39:49;;;;;;;1999.90;999.90;;;;;;;34.03;36.73;96010.88;5046408;28;20228;-63
2021/07/27 10:42:17;;;;;;;1999.90;999.90;;;;;;;34.13;37.79;96012.47;5046941;28;20285;-62
2021/07/27 10:44:45;;;;;;;1999.90;999.90;;;;;;;33.80;37.32;96013.91;5046409;28;20258;-63
2021/07/27 10:47:19;;;;;;;1999.90;999.90;;;;;;;33.81;36.89;96010.78;5046792;28;20548;-63
2021/07/27 10:49:47;;;;;;;1999.90;999.90;;;;;;;34.02;36.16;96010.09;5045822;28;20193;-63
2021/07/27 10:52:16;;;;;;;1999.90;999.90;;;;;;;34.20;36.51;95998.03;5046543;28;20711;-62
2021/07/27 10:54:46;;;;;;;1999.90;999.90;;;;;;;34.17;39.80;96000.38;5046674;28;20287;-62
2021/07/27 10:57:23;;;;;;;1999.90;999.90;;;;;;;34.37;37.85;95999.41;5046905;28;20205;-63
2021/07/27 10:59:50;;;;;;;1999.90;999.90;;;;;;;34.49;36.28;95998.59;5046428;28;20201;-63
2021/07/27 11:02:17;;;;;;;1999.90;999.90;;;;;;;34.81;35.27;95995.59;5046294;28;20197;-61
2021/07/27 11:04:44;;;;;;;1999.90;999.90;;;;;;;34.95;36.79;95997.03;5046377;28;20611;-62
2021/07/27 11:07:13;;;;;;;1999.90;999.90;;;;;;;34.77;35.37;95994.94;5046206;28;20240;-62
2021/07/27 11:09:51;;;;;;;1999.90;999.90;;;;;;;34.71;34.73;95991.31;5046418;28;20198;-62
2021/07/27 11:12:33;;;;;;;1999.90;999.90;;;;;;;35.04;33.61;95990.94;5045867;28;20246;-62
2021/07/27 11:15:19;;;;;;;1999.90;999.90;;;;;;;34.61;37.11;95989.72;5046077;28;20193;-62
2021/07/27 11:17:47;;;;;;;1999.90;999.90;;;;;;;34.81;34.42;95987.50;5046108;28;20575;-62